Palmyra, Pennsylvania
Current Conditions -  °F | °C
As of 4:58 AM on Thursday 23 Oct 2014 (Local Time) from KMUI Reporting Station
Overcast Overcast  
Wind Chill: 51°   Ceiling: 2300
Heat Index: 51°   Visibility: 10mi
Dew Point: 46°   Wind: 13mph
Humidity: 83%   Direction: 330°NNW
Pressure: 29.86"   Gusts: 21mph
Location:  40.31°N, 76.59°W
Report Text: KMUI 230858Z AUTO 33011G18KT 300V010 10SM OVC023 11/08 A2986 RMK AO2 OVC V BKN SLP115 T01060079 55002 $
Loading
Personal Weather Stations






























Interactive Weather Map
Tropical Storm Tracking
New forecast layout! Learn more

10-Day Weather Forecast

Advertisements
Track Severe Weather on mobile